Estación Meteorológica Peña el Pijo (Robertgarden) [ 12/11/19 23:04:46 CET ]

Fecha Hora Presion(HPa) Temp (°C) Humedad % Rocio (°C) Viento ( m/s) Direccion Lluvia 1Hora(mm) Lluvia 24H(mm) LLuvia Total(mm)
2019-Oct-02 01:01:46 1009.200 12.5 66 6.3         490.25
2019-Oct-02 02:01:55 1009.100 13.1 67 7.1         490.25
2019-Oct-02 03:01:39 1009.200 14.4 67 8.3         490.25
2019-Oct-02 04:01:45 1008.900 13.7 67 7.7         490.25
2019-Oct-02 05:01:47 1008.700 13.1 68 7.3         490.25
2019-Oct-02 06:01:50 1008.600 10.4 74 6.0         490.25
2019-Oct-02 07:01:29 1008.500 10.3 79 6.6         490.25
2019-Oct-02 08:02:07 1008.700 12.8 76 8.6         490.25
2019-Oct-02 09:01:44 1008.600 14.3 68 8.4         490.25
2019-Oct-02 10:01:31 1009.000 16.6 59 8.6         490.25
2019-Oct-02 11:01:27 1009.200 19.8 48 8.5         490.25
2019-Oct-02 12:01:46 1009.300 22.5 36 6.6         490.25
2019-Oct-02 13:01:45 1009.300 24.3 30 5.7         490.25
2019-Oct-02 14:01:48 1009.100 25.4 29 6.0         490.25
2019-Oct-02 15:01:50 1008.900 25.9 28 5.9         490.25
2019-Oct-02 16:01:54 1009.200 26.2 26 5.0         490.25
2019-Oct-02 17:01:45 1008.800 25.4 30 6.6         490.25
2019-Oct-02 18:01:52 1009.100 23.0 33 5.8         490.25
2019-Oct-02 19:01:41 1009.200 20.9 36 5.2         490.25
2019-Oct-02 20:01:52 1010.100 18.2 40 4.4         490.25
2019-Oct-02 21:01:47 1010.600 14.3 51 4.3         490.25
2019-Oct-02 22:01:55 1011.000 11.9 58 3.9         490.25
2019-Oct-02 23:01:51 1011.500 10.3 63 3.5         490.25

Temperatura Máxima:26°    Temperatura Mínima:10°
Presión Máxima:1011.500 Hpa    Presión Mínima:1008.500 Hpa


Volver